createdAt,value
2019-02-05T00:02:43.815Z,31.17
2019-02-05T00:25:35.378Z,33.20
2019-02-05T00:38:14.790Z,30.20
2019-02-05T00:40:44.991Z,36.25
2019-02-05T00:43:15.083Z,24.95
2019-02-05T00:45:44.980Z,27.82
2019-02-05T00:59:44.485Z,37.15
2019-02-05T01:12:36.749Z,39.03
2019-02-05T01:15:08.535Z,38.13
2019-02-05T01:17:39.253Z,39.70
2019-02-05T01:20:12.999Z,34.20
2019-02-05T01:22:42.983Z,40.88
2019-02-05T01:29:04.168Z,37.63
2019-02-05T01:31:34.402Z,36.05
2019-02-05T01:40:46.237Z,42.03
2019-02-05T01:43:16.141Z,41.88
2019-02-05T01:45:46.037Z,42.38
2019-02-05T01:48:15.923Z,34.75
2019-02-05T01:50:46.138Z,43.50
2019-02-05T01:53:16.367Z,46.48
2019-02-05T01:55:46.556Z,37.30
2019-02-05T01:58:16.596Z,38.65
2019-02-05T02:00:46.794Z,40.67
2019-02-05T02:03:16.695Z,48.52
2019-02-05T02:05:46.914Z,57.08
2019-02-05T02:08:17.182Z,39.42
2019-02-05T02:10:47.595Z,37.58
2019-02-05T02:13:17.886Z,36.53
2019-02-05T02:15:48.078Z,42.43
2019-02-05T02:18:17.982Z,39.13
2019-02-05T02:20:47.877Z,38.50
2019-02-05T02:23:17.749Z,39.08
2019-02-05T02:25:47.729Z,35.38
2019-02-05T02:28:19.718Z,47.17
2019-02-05T02:30:49.979Z,36.58
2019-02-05T02:33:20.150Z,29.82
2019-02-05T02:35:50.027Z,44.18
2019-02-05T02:38:19.991Z,41.58
2019-02-05T02:40:50.039Z,34.67
2019-02-05T02:43:19.996Z,37.98
2019-02-05T02:45:49.911Z,41.18
2019-02-05T02:48:20.007Z,34.15
2019-02-05T02:50:49.905Z,41.42
2019-02-05T02:53:19.781Z,35.10
2019-02-05T02:55:49.796Z,36.95
2019-02-05T02:58:19.981Z,39.73
2019-02-05T03:00:50.582Z,36.63
2019-02-05T03:03:20.468Z,34.27
2019-02-05T03:05:50.385Z,33.92
2019-02-05T03:08:20.340Z,39.85
2019-02-05T03:10:50.234Z,34.73
2019-02-05T03:13:20.435Z,49.90
2019-02-05T03:15:50.487Z,40.75
2019-02-05T03:18:20.627Z,39.08
2019-02-05T03:27:18.266Z,46.80
2019-02-05T03:37:39.190Z,39.90
2019-02-05T03:40:59.586Z,39.00
2019-02-05T04:01:04.796Z,48.55
2019-02-05T04:04:35.000Z,56.15
2019-02-05T04:12:15.169Z,52.17
2019-02-05T04:16:00.551Z,50.25
2019-02-05T04:19:14.886Z,52.10
2019-02-05T04:22:30.918Z,44.48
2019-02-05T04:25:45.000Z,43.52
2019-02-05T04:29:03.018Z,44.42
2019-02-05T04:32:15.116Z,45.33
2019-02-05T04:35:29.583Z,48.50
2019-02-05T04:38:21.675Z,45.50
2019-02-05T04:42:15.628Z,48.15
2019-02-05T04:45:16.832Z,47.40
2019-02-05T04:49:10.801Z,41.20
2019-02-05T04:52:16.916Z,54.53
2019-02-05T04:55:48.998Z,55.52
2019-02-05T04:59:08.599Z,50.83
2019-02-05T05:02:00.928Z,50.78
2019-02-05T05:05:25.548Z,52.05
2019-02-05T05:09:00.807Z,42.27
2019-02-05T05:11:31.435Z,51.60
2019-02-05T05:14:01.818Z,54.38
2019-02-05T05:16:31.971Z,49.20
2019-02-05T05:19:02.277Z,46.63
2019-02-05T05:21:33.338Z,56.92
2019-02-05T05:24:04.978Z,55.90
2019-02-05T05:26:35.312Z,47.17
2019-02-05T05:29:06.394Z,51.50
2019-02-05T05:31:36.466Z,58.35
2019-02-05T05:34:06.563Z,77.17
2019-02-05T05:36:36.647Z,59.80
2019-02-05T05:39:09.670Z,71.30
2019-02-05T05:45:14.711Z,69.22
2019-02-05T05:47:44.773Z,56.70
2019-02-05T05:50:16.359Z,58.50
2019-02-05T05:52:46.421Z,78.72
2019-02-05T05:55:16.605Z,63.85
2019-02-05T05:57:49.703Z,64.77
2019-02-05T06:00:20.889Z,62.85
2019-02-05T06:02:51.094Z,71.90
2019-02-05T06:05:21.483Z,70.30
2019-02-05T06:07:51.956Z,67.37
2019-02-05T06:14:13.360Z,55.95
2019-02-05T06:16:43.791Z,55.45
2019-02-05T06:23:36.559Z,55.55
2019-02-05T06:26:06.664Z,70.05
2019-02-05T06:28:37.082Z,63.87
2019-02-05T06:31:07.455Z,74.62
2019-02-05T06:33:37.687Z,63.23
2019-02-05T06:52:28.367Z,53.20
2019-02-05T07:10:18.029Z,65.03
2019-02-05T07:12:48.886Z,66.33
2019-02-05T07:15:19.212Z,50.30
2019-02-05T07:21:33.601Z,53.02
2019-02-05T07:36:34.325Z,69.20
2019-02-05T07:39:07.570Z,79.40
2019-02-05T07:41:37.603Z,84.20
2019-02-05T07:44:08.076Z,63.23
2019-02-05T07:46:38.121Z,74.75
2019-02-05T07:49:08.095Z,76.30
2019-02-05T07:57:58.444Z,79.95
2019-02-05T08:00:29.309Z,80.38
2019-02-05T08:02:59.470Z,78.83
2019-02-05T08:05:31.796Z,77.53
2019-02-05T08:11:52.820Z,85.65
2019-02-05T08:14:23.724Z,75.60
2019-02-05T08:16:53.919Z,86.15
2019-02-05T08:19:23.897Z,77.75
2019-02-05T08:21:53.831Z,98.15
2019-02-05T08:43:25.209Z,47.30
2019-02-05T08:45:56.910Z,58.10
2019-02-05T08:51:41.965Z,44.98
2019-02-05T08:54:11.989Z,49.27
2019-02-05T08:56:42.252Z,51.13
2019-02-05T08:59:12.337Z,56.65
2019-02-05T09:13:11.465Z,51.88
2019-02-05T09:15:41.564Z,46.73
2019-02-05T09:18:12.041Z,40.45
2019-02-05T09:20:42.168Z,43.83
2019-02-05T09:23:14.374Z,46.58
2019-02-05T09:25:43.934Z,38.53
2019-02-05T09:32:07.136Z,44.75
2019-02-05T09:34:37.218Z,35.05
2019-02-05T09:37:07.917Z,36.25
2019-02-05T09:39:37.878Z,35.28
2019-02-05T09:45:59.173Z,30.17
2019-02-05T09:48:29.291Z,30.52
2019-02-05T09:50:59.779Z,35.95
2019-02-05T09:53:30.252Z,26.48
2019-02-05T09:56:01.116Z,37.10
2019-02-05T09:58:31.054Z,32.53
2019-02-05T10:04:52.835Z,41.40
2019-02-05T10:07:22.767Z,30.17
2019-02-05T10:09:53.553Z,33.70
2019-02-05T10:12:23.724Z,25.50
2019-02-05T10:14:53.961Z,35.17
2019-02-05T10:17:24.393Z,32.73
2019-02-05T10:19:54.638Z,27.85
2019-02-05T10:22:24.907Z,33.58
2019-02-05T10:24:55.190Z,33.83
2019-02-05T10:27:25.197Z,31.05
2019-02-05T10:33:54.833Z,34.70
2019-02-05T10:36:18.738Z,25.72
2019-02-05T10:45:37.070Z,38.27
2019-02-05T10:48:09.660Z,26.30
2019-02-05T10:50:39.817Z,32.78
2019-02-05T11:04:20.000Z,25.10
2019-02-05T11:24:41.227Z,29.53
2019-02-05T11:27:11.267Z,27.83
2019-02-05T11:33:42.735Z,29.63
2019-02-05T11:36:12.749Z,27.50
2019-02-05T11:38:42.814Z,24.13
2019-02-05T11:41:13.765Z,32.80
2019-02-05T12:07:00.092Z,29.03
2019-02-05T12:19:58.883Z,23.87
2019-02-05T12:22:29.548Z,26.03
2019-02-05T12:24:59.543Z,29.40
2019-02-05T12:27:30.065Z,25.20
2019-02-05T12:30:00.691Z,32.40
2019-02-05T12:32:31.463Z,30.77
2019-02-05T12:35:03.592Z,27.50
2019-02-05T12:37:33.584Z,32.43
2019-02-05T12:40:03.556Z,24.07
2019-02-05T12:42:33.959Z,19.93
2019-02-05T12:45:06.084Z,24.03
2019-02-05T12:47:36.706Z,25.13
2019-02-05T12:50:11.609Z,21.47
2019-02-05T12:52:41.884Z,21.17
2019-02-05T12:55:14.846Z,22.70
2019-02-05T12:57:43.829Z,18.70
2019-02-05T13:04:05.602Z,15.77
2019-02-05T13:06:36.553Z,24.50
2019-02-05T13:09:09.607Z,25.80
2019-02-05T13:11:40.115Z,26.90
2019-02-05T13:14:10.050Z,28.97
2019-02-05T13:16:39.979Z,20.47
2019-02-05T13:23:01.643Z,21.77
2019-02-05T13:25:31.755Z,20.43
2019-02-05T13:35:00.609Z,17.47
2019-02-05T13:37:30.860Z,20.03
2019-02-05T13:46:30.372Z,13.77
2019-02-05T13:56:52.070Z,11.87
2019-02-05T15:02:11.860Z,13.60
2019-02-05T15:04:41.935Z,11.43
2019-02-05T15:07:11.933Z,11.27
2019-02-05T15:09:42.235Z,23.97
2019-02-05T15:12:12.175Z,17.07
2019-02-05T15:18:34.113Z,8.70
2019-02-05T15:21:04.274Z,11.83
2019-02-05T15:23:34.522Z,12.87
2019-02-05T15:26:04.699Z,15.50
2019-02-05T15:28:34.644Z,14.93
2019-02-05T15:34:56.242Z,9.87
2019-02-05T15:47:56.242Z,15.43
2019-02-05T15:57:04.065Z,15.53
2019-02-05T16:07:14.399Z,23.13
2019-02-05T16:09:44.916Z,14.17
2019-02-05T16:18:53.325Z,14.13
2019-02-05T16:21:23.440Z,19.20
2019-02-05T16:23:54.019Z,22.37
2019-02-05T16:26:24.115Z,18.45
2019-02-05T16:28:54.146Z,21.60
2019-02-05T16:31:27.867Z,25.10
2019-02-05T16:33:57.910Z,21.17
2019-02-05T16:36:28.013Z,15.80
2019-02-05T16:38:58.188Z,20.48
2019-02-05T16:41:28.160Z,17.65
2019-02-05T16:43:58.419Z,18.92
2019-02-05T16:46:28.349Z,27.90
2019-02-05T16:48:58.363Z,27.02
2019-02-05T16:51:28.581Z,20.95
2019-02-05T16:54:01.668Z,22.15
2019-02-05T16:56:31.608Z,21.55
2019-02-05T16:59:01.789Z,17.10
2019-02-05T17:01:32.096Z,17.73
2019-02-05T17:04:02.069Z,20.45
2019-02-05T17:10:23.296Z,27.15
2019-02-05T17:23:02.224Z,34.53
2019-02-05T17:43:34.178Z,17.35
2019-02-05T17:46:05.859Z,25.60
2019-02-05T17:48:36.413Z,22.80
2019-02-05T17:51:07.416Z,27.77
2019-02-05T17:53:38.025Z,20.10
2019-02-05T17:56:08.597Z,35.85
2019-02-05T18:10:08.582Z,23.77
2019-02-05T18:12:40.111Z,27.27
2019-02-05T18:15:18.768Z,30.02
2019-02-05T18:17:49.588Z,31.70
2019-02-05T18:20:20.494Z,28.07
2019-02-05T18:44:06.092Z,38.78
2019-02-05T18:46:36.944Z,37.73
2019-02-05T19:05:14.964Z,40.20
2019-02-05T19:25:54.793Z,44.88
2019-02-05T19:28:31.304Z,46.73
2019-02-05T19:45:37.518Z,41.92
2019-02-05T20:01:18.406Z,51.05
2019-02-05T20:03:48.481Z,48.48
2019-02-05T20:06:19.617Z,48.45
2019-02-05T20:08:51.087Z,47.78
2019-02-05T20:11:22.557Z,57.50
2019-02-05T20:17:44.663Z,44.67
2019-02-05T20:20:16.398Z,48.02
2019-02-05T20:22:47.412Z,45.33
2019-02-05T20:25:19.158Z,48.35
2019-02-05T20:27:50.381Z,54.85
2019-02-05T20:30:21.255Z,42.10
2019-02-05T20:32:52.774Z,41.28
2019-02-05T20:35:24.180Z,54.98
2019-02-05T20:37:55.298Z,55.83
2019-02-05T20:40:26.172Z,52.10
2019-02-05T20:42:57.021Z,49.18
2019-02-05T20:45:28.273Z,49.35
2019-02-05T20:47:59.217Z,46.80
2019-02-05T20:50:30.552Z,47.93
2019-02-05T20:53:13.043Z,46.70
2019-02-05T20:55:34.550Z,64.85
2019-02-05T20:58:06.676Z,49.88
2019-02-05T21:00:37.860Z,46.10
2019-02-05T21:03:08.473Z,51.18
2019-02-05T21:12:18.859Z,67.60
2019-02-05T21:14:49.032Z,62.55
2019-02-05T21:17:19.735Z,63.58
2019-02-05T21:19:49.975Z,58.98
2019-02-05T21:22:20.079Z,75.65
2019-02-05T21:24:50.467Z,63.83
2019-02-05T21:34:14.848Z,78.42
2019-02-05T21:36:34.566Z,65.95
2019-02-05T21:39:09.527Z,65.72
2019-02-05T21:41:39.605Z,72.90
2019-02-05T21:48:38.351Z,60.48
2019-02-05T21:51:08.674Z,62.95
2019-02-05T21:53:39.119Z,73.75
2019-02-05T21:56:09.234Z,96.60
2019-02-05T22:10:09.725Z,77.35
2019-02-05T22:12:39.998Z,65.92
2019-02-05T22:15:11.905Z,60.28
2019-02-05T22:17:42.346Z,69.10
2019-02-05T22:20:16.299Z,57.85
2019-02-05T22:26:37.205Z,76.33
2019-02-05T22:29:07.676Z,81.97
2019-02-05T22:31:38.148Z,62.25
2019-02-05T22:34:08.445Z,55.08
2019-02-05T22:36:38.986Z,58.83
2019-02-05T22:39:10.377Z,52.83
2019-02-05T22:45:32.464Z,61.70
2019-02-05T22:48:02.858Z,64.67
2019-02-05T22:50:33.991Z,59.45
2019-02-05T22:53:05.325Z,58.05
2019-02-05T22:55:36.348Z,56.80
2019-02-05T22:58:07.294Z,55.73
2019-02-05T23:01:30.910Z,55.50
2019-02-05T23:04:52.970Z,59.83
2019-02-05T23:07:26.382Z,55.75
2019-02-05T23:10:42.184Z,46.60
2019-02-05T23:13:16.547Z,56.15
2019-02-05T23:15:49.349Z,56.92
2019-02-05T23:18:19.785Z,59.38
2019-02-05T23:24:22.388Z,62.23
2019-02-05T23:26:53.569Z,50.50
2019-02-05T23:29:23.823Z,64.60
2019-02-05T23:31:53.988Z,74.70
2019-02-05T23:34:24.363Z,60.50
2019-02-05T23:36:54.363Z,64.40
2019-02-05T23:39:25.007Z,56.50
2019-02-05T23:41:55.642Z,67.37
2019-02-05T23:44:25.759Z,53.95
2019-02-05T23:46:56.066Z,56.53
2019-02-05T23:49:26.297Z,65.42
2019-02-05T23:55:41.115Z,66.07
2019-02-05T23:58:11.113Z,67.10
